createdAt,value
2022-11-09T00:01:18.429Z,73.40
2022-11-09T00:03:21.892Z,73.40
2022-11-09T00:05:24.968Z,73.30
2022-11-09T00:07:31.195Z,73.50
2022-11-09T00:09:34.136Z,73.50
2022-11-09T00:11:37.788Z,73.40
2022-11-09T00:13:42.463Z,73.60
2022-11-09T00:15:45.319Z,73.80
2022-11-09T00:17:48.240Z,73.70
2022-11-09T00:19:51.159Z,74.00
2022-11-09T00:21:54.214Z,73.90
2022-11-09T00:23:58.724Z,74.00
2022-11-09T00:26:02.115Z,73.90
2022-11-09T00:28:05.202Z,74.00
2022-11-09T00:30:10.479Z,73.90
2022-11-09T00:32:13.380Z,74.10
2022-11-09T00:34:16.424Z,73.90
2022-11-09T00:36:20.720Z,73.90
2022-11-09T00:38:23.672Z,74.00
2022-11-09T00:40:28.162Z,74.00
2022-11-09T00:42:31.030Z,74.10
2022-11-09T00:44:33.926Z,74.20
2022-11-09T00:46:37.153Z,74.30
2022-11-09T00:48:40.493Z,74.50
2022-11-09T00:50:43.401Z,74.60
2022-11-09T00:52:48.400Z,74.60
2022-11-09T00:54:51.308Z,74.70
2022-11-09T00:56:55.662Z,74.80
2022-11-09T00:58:58.554Z,74.70
2022-11-09T01:01:06.879Z,74.60
2022-11-09T01:03:09.819Z,74.70
2022-11-09T01:05:12.952Z,74.70
2022-11-09T01:07:15.917Z,74.70
2022-11-09T01:09:18.842Z,74.60
2022-11-09T01:11:23.316Z,74.70
2022-11-09T01:13:27.622Z,75.00
2022-11-09T01:15:30.482Z,75.00
2022-11-09T01:17:33.677Z,75.10
2022-11-09T01:19:36.683Z,75.10
2022-11-09T01:21:39.565Z,75.10
2022-11-09T01:23:43.852Z,75.20
2022-11-09T01:25:46.887Z,75.40
2022-11-09T01:27:49.941Z,75.50
2022-11-09T01:29:54.369Z,75.10
2022-11-09T01:32:09.186Z,75.30
2022-11-09T01:34:12.442Z,74.80
2022-11-09T01:36:17.111Z,74.90
2022-11-09T01:38:20.044Z,75.70
2022-11-09T01:40:22.989Z,75.70
2022-11-09T01:42:26.860Z,75.90
2022-11-09T01:44:34.872Z,76.00
2022-11-09T01:46:43.615Z,76.10
2022-11-09T01:48:51.253Z,76.20
2022-11-09T01:50:58.518Z,77.10
2022-11-09T01:53:03.628Z,76.70
2022-11-09T01:55:09.868Z,77.20
2022-11-09T01:57:19.133Z,76.90
2022-11-09T01:59:24.924Z,77.00
2022-11-09T02:01:28.632Z,77.30
2022-11-09T02:03:38.124Z,77.40
2022-11-09T02:05:43.985Z,77.70
2022-11-09T02:07:46.966Z,77.80
2022-11-09T02:09:56.787Z,77.90
2022-11-09T02:11:59.788Z,78.10
2022-11-09T02:14:08.145Z,78.00
2022-11-09T02:16:16.061Z,78.40
2022-11-09T02:18:20.145Z,78.60
2022-11-09T02:20:25.858Z,78.50
2022-11-09T02:22:28.928Z,78.80
2022-11-09T02:24:33.921Z,78.30
2022-11-09T02:26:41.158Z,78.90
2022-11-09T02:28:44.313Z,78.90
2022-11-09T02:30:50.924Z,78.90
2022-11-09T02:32:53.880Z,79.40
2022-11-09T02:34:57.328Z,79.40
2022-11-09T02:37:07.946Z,80.00
2022-11-09T02:39:17.300Z,79.40
2022-11-09T02:41:23.245Z,79.60
2022-11-09T02:43:26.677Z,79.40
2022-11-09T02:45:39.158Z,79.20
2022-11-09T02:47:42.224Z,79.80
2022-11-09T02:49:48.260Z,79.70
2022-11-09T02:51:51.335Z,79.90
2022-11-09T02:53:56.097Z,80.00
2022-11-09T02:56:01.298Z,80.30
2022-11-09T02:58:04.329Z,80.50
2022-11-09T03:00:11.210Z,80.50
2022-11-09T03:02:14.266Z,80.70
2022-11-09T03:04:17.439Z,80.50
2022-11-09T03:06:20.366Z,80.80
2022-11-09T03:08:23.474Z,80.80
2022-11-09T03:10:27.772Z,80.90
2022-11-09T03:12:36.034Z,81.00
2022-11-09T03:14:41.815Z,80.70
2022-11-09T03:16:52.958Z,81.00
2022-11-09T03:18:56.987Z,80.70
2022-11-09T03:21:03.464Z,81.00
2022-11-09T03:23:06.472Z,81.60
2022-11-09T03:25:13.422Z,81.30
2022-11-09T03:27:18.247Z,81.70
2022-11-09T03:29:21.106Z,81.80
2022-11-09T03:31:23.947Z,81.80
2022-11-09T03:33:26.826Z,81.80
2022-11-09T03:35:29.806Z,82.20
2022-11-09T03:37:32.760Z,82.30
2022-11-09T03:39:35.761Z,82.20
2022-11-09T03:41:38.703Z,82.30
2022-11-09T03:43:43.030Z,82.40
2022-11-09T03:45:47.233Z,82.40
2022-11-09T03:47:50.449Z,82.80
2022-11-09T03:49:54.832Z,82.80
2022-11-09T03:51:57.798Z,83.00
2022-11-09T03:54:00.707Z,83.10
2022-11-09T03:56:03.603Z,83.30
2022-11-09T03:58:08.058Z,83.30
2022-11-09T04:00:14.841Z,83.40
2022-11-09T04:02:17.784Z,83.50
2022-11-09T04:04:20.754Z,83.40
2022-11-09T04:06:23.698Z,83.70
2022-11-09T04:08:26.778Z,83.70
2022-11-09T04:10:29.869Z,83.90
2022-11-09T04:12:33.116Z,84.10
2022-11-09T04:14:36.141Z,84.20
2022-11-09T04:16:40.407Z,84.20
2022-11-09T04:18:43.340Z,85.10
2022-11-09T04:20:46.223Z,84.40
2022-11-09T04:22:55.502Z,84.70
2022-11-09T04:24:58.444Z,84.70
2022-11-09T04:27:01.450Z,84.40
2022-11-09T04:29:04.833Z,84.60
2022-11-09T04:31:07.744Z,84.70
2022-11-09T04:33:11.998Z,84.80
2022-11-09T04:35:15.012Z,84.90
2022-11-09T04:37:17.988Z,85.00
2022-11-09T04:39:20.979Z,85.20
2022-11-09T04:41:24.327Z,85.20
2022-11-09T04:43:27.225Z,85.10
2022-11-09T04:45:31.634Z,85.30
2022-11-09T04:47:34.610Z,85.10
2022-11-09T04:49:38.992Z,85.10
2022-11-09T04:51:41.950Z,85.00
2022-11-09T04:53:45.244Z,85.20
2022-11-09T04:55:48.107Z,85.30
2022-11-09T04:57:51.004Z,85.30
2022-11-09T04:59:53.998Z,85.30
2022-11-09T05:01:56.942Z,85.10
2022-11-09T05:03:59.904Z,85.10
2022-11-09T05:06:25.251Z,85.00
2022-11-09T05:08:28.335Z,85.00
2022-11-09T05:10:31.626Z,84.90
2022-11-09T05:12:34.605Z,85.50
2022-11-09T05:14:37.970Z,84.90
2022-11-09T05:16:40.973Z,85.00
2022-11-09T05:18:44.092Z,85.00
2022-11-09T05:20:46.948Z,85.20
2022-11-09T05:23:08.658Z,85.20
2022-11-09T05:25:11.555Z,85.10
2022-11-09T05:27:14.414Z,85.00
2022-11-09T05:29:17.280Z,85.00
2022-11-09T05:31:20.208Z,85.10
2022-11-09T05:33:23.373Z,85.10
2022-11-09T05:35:26.438Z,85.20
2022-11-09T05:37:29.319Z,85.30
2022-11-09T05:39:34.312Z,85.40
2022-11-09T05:41:37.175Z,85.50
2022-11-09T05:43:40.109Z,85.60
2022-11-09T05:45:44.202Z,85.80
2022-11-09T05:47:48.076Z,86.00
2022-11-09T05:49:51.246Z,86.00
2022-11-09T05:51:54.506Z,85.90
2022-11-09T05:53:57.404Z,85.90
2022-11-09T05:56:04.968Z,85.80
2022-11-09T05:58:08.340Z,85.90
2022-11-09T06:00:12.508Z,86.00
2022-11-09T06:02:15.476Z,86.10
2022-11-09T06:04:18.414Z,86.10
2022-11-09T06:06:21.322Z,86.20
2022-11-09T06:08:24.251Z,86.30
2022-11-09T06:10:27.118Z,86.30
2022-11-09T06:12:31.437Z,86.30
2022-11-09T06:14:34.398Z,86.30
2022-11-09T06:16:37.980Z,86.20
2022-11-09T06:18:40.875Z,86.20
2022-11-09T06:20:43.794Z,86.10
2022-11-09T06:22:46.700Z,86.00
2022-11-09T06:24:49.542Z,86.10
2022-11-09T06:26:52.439Z,86.20
2022-11-09T06:28:56.693Z,86.40
2022-11-09T06:31:00.682Z,86.40
2022-11-09T06:33:04.510Z,86.60
2022-11-09T06:35:08.211Z,86.60
2022-11-09T06:37:11.223Z,86.60
2022-11-09T06:39:14.161Z,86.70
2022-11-09T06:41:17.213Z,86.80
2022-11-09T06:43:20.655Z,86.80
2022-11-09T06:45:25.180Z,86.90
2022-11-09T06:47:29.409Z,86.90
2022-11-09T06:49:32.299Z,87.00
2022-11-09T06:51:35.205Z,87.10
2022-11-09T06:53:38.645Z,87.30
2022-11-09T06:55:47.190Z,87.20
2022-11-09T06:57:51.867Z,87.20
2022-11-09T06:59:54.769Z,87.00
2022-11-09T07:02:01.710Z,87.10
2022-11-09T07:04:04.979Z,87.20
2022-11-09T07:06:09.621Z,87.00
2022-11-09T07:08:13.108Z,87.20
2022-11-09T07:10:16.507Z,87.30
2022-11-09T07:12:19.369Z,87.10
2022-11-09T07:14:23.511Z,87.10
2022-11-09T07:16:26.601Z,87.00
2022-11-09T07:18:30.943Z,87.10
2022-11-09T07:20:34.183Z,86.90
2022-11-09T07:22:39.394Z,86.90
2022-11-09T07:24:42.260Z,87.10
2022-11-09T07:26:45.116Z,86.90
2022-11-09T07:28:47.974Z,86.80
2022-11-09T07:30:52.980Z,86.80
2022-11-09T07:33:13.344Z,86.60
2022-11-09T07:35:17.892Z,86.40
2022-11-09T07:37:21.062Z,86.70
2022-11-09T07:39:23.970Z,86.70
2022-11-09T07:41:31.921Z,86.60
2022-11-09T07:43:37.405Z,86.40
2022-11-09T07:45:41.519Z,86.60
2022-11-09T07:47:44.459Z,86.70
2022-11-09T07:49:47.901Z,86.50
2022-11-09T07:51:52.130Z,86.40
2022-11-09T07:53:54.983Z,86.50
2022-11-09T07:55:58.713Z,86.50
2022-11-09T07:58:03.946Z,86.40
2022-11-09T08:00:07.891Z,86.50
2022-11-09T08:02:11.194Z,86.50
2022-11-09T08:04:14.676Z,86.40
2022-11-09T08:06:18.736Z,86.60
2022-11-09T08:08:23.367Z,86.60
2022-11-09T08:10:27.724Z,86.70
2022-11-09T08:12:35.774Z,87.60
2022-11-09T08:14:39.870Z,86.70
2022-11-09T08:16:42.728Z,86.60
2022-11-09T08:18:46.108Z,86.60
2022-11-09T08:20:49.682Z,86.60
2022-11-09T08:22:52.579Z,86.40
2022-11-09T08:24:57.868Z,86.30
2022-11-09T08:27:00.745Z,86.30
2022-11-09T08:29:03.698Z,86.20
2022-11-09T08:31:08.487Z,85.90
2022-11-09T08:33:13.598Z,85.90
2022-11-09T08:35:18.536Z,85.80
2022-11-09T08:37:21.435Z,85.70
2022-11-09T08:39:24.376Z,85.80
2022-11-09T08:41:30.112Z,86.00
2022-11-09T08:43:33.172Z,85.90
2022-11-09T08:45:37.410Z,85.90
2022-11-09T08:47:40.464Z,85.90
2022-11-09T08:49:44.544Z,85.70
2022-11-09T08:51:47.467Z,85.70
2022-11-09T08:53:50.796Z,85.60
2022-11-09T08:55:53.909Z,85.70
2022-11-09T08:58:00.227Z,85.50
2022-11-09T09:00:03.509Z,85.40
2022-11-09T09:02:06.719Z,85.50
2022-11-09T09:04:09.639Z,85.50
2022-11-09T09:06:12.633Z,86.10
2022-11-09T09:08:16.353Z,85.50
2022-11-09T09:10:19.475Z,85.00
2022-11-09T09:12:22.367Z,84.70
2022-11-09T09:14:26.969Z,84.80
2022-11-09T09:16:30.061Z,84.60
2022-11-09T09:18:33.094Z,84.60
2022-11-09T09:20:36.009Z,84.50
2022-11-09T09:22:39.864Z,83.90
2022-11-09T09:24:42.831Z,84.20
2022-11-09T09:26:46.094Z,85.00
2022-11-09T09:28:49.019Z,83.50
2022-11-09T09:30:53.408Z,83.90
2022-11-09T09:33:00.225Z,84.00
2022-11-09T09:35:03.226Z,83.90
2022-11-09T09:37:06.159Z,84.10
2022-11-09T09:39:09.646Z,84.20
2022-11-09T09:41:22.566Z,84.30
2022-11-09T09:43:33.474Z,84.10
2022-11-09T09:45:44.474Z,84.40
2022-11-09T09:47:54.330Z,84.80
2022-11-09T09:50:02.264Z,84.60
2022-11-09T09:52:10.864Z,84.30
2022-11-09T09:54:19.792Z,84.40
2022-11-09T09:56:25.920Z,83.90
2022-11-09T09:58:30.706Z,83.80
2022-11-09T10:00:38.636Z,84.40
2022-11-09T10:02:41.687Z,83.60
2022-11-09T10:04:46.092Z,84.00
2022-11-09T10:07:01.959Z,84.10
2022-11-09T10:09:15.392Z,84.00
2022-11-09T10:11:31.108Z,83.70
2022-11-09T10:14:04.602Z,84.50
2022-11-09T10:16:14.285Z,83.50
2022-11-09T10:18:35.723Z,83.20
2022-11-09T10:20:53.908Z,83.50
2022-11-09T10:23:09.806Z,83.50
2022-11-09T10:25:27.891Z,83.60
2022-11-09T10:27:37.905Z,82.90
2022-11-09T10:29:44.373Z,82.90
2022-11-09T10:31:49.212Z,82.90
2022-11-09T10:34:00.975Z,83.20
2022-11-09T10:36:13.008Z,82.10
2022-11-09T10:38:22.429Z,82.20
2022-11-09T10:40:31.449Z,82.30
2022-11-09T10:42:37.296Z,82.60
2022-11-09T10:44:40.183Z,82.70
2022-11-09T10:47:08.094Z,82.80
2022-11-09T10:49:21.217Z,82.30
2022-11-09T10:51:39.833Z,82.30
2022-11-09T10:53:42.704Z,82.20
2022-11-09T10:55:53.530Z,82.30
2022-11-09T10:57:59.912Z,82.10
2022-11-09T11:00:05.268Z,82.50
2022-11-09T11:02:40.579Z,82.30
2022-11-09T11:04:43.563Z,81.90
2022-11-09T11:06:48.231Z,82.00
2022-11-09T11:08:53.235Z,81.90
2022-11-09T11:11:32.209Z,81.90
2022-11-09T11:13:32.890Z,82.20
2022-11-09T11:15:39.880Z,81.80
2022-11-09T11:17:42.868Z,81.80
2022-11-09T11:19:46.158Z,81.60
2022-11-09T11:22:19.159Z,81.40
2022-11-09T11:24:22.525Z,80.90
2022-11-09T11:26:35.646Z,81.00
2022-11-09T11:28:44.495Z,80.80
2022-11-09T11:30:47.422Z,81.40
2022-11-09T11:32:51.183Z,81.60
2022-11-09T11:35:01.105Z,81.10
2022-11-09T11:37:20.110Z,80.20
2022-11-09T11:39:39.837Z,80.50
2022-11-09T11:41:58.716Z,80.50
2022-11-09T11:44:12.004Z,80.30
2022-11-09T11:46:21.882Z,80.40
2022-11-09T11:48:53.943Z,80.60
2022-11-09T11:51:04.573Z,80.10
2022-11-09T11:53:42.154Z,80.60
2022-11-09T11:56:04.548Z,80.10
2022-11-09T11:58:24.000Z,79.80
2022-11-09T12:00:27.087Z,79.20
2022-11-09T12:03:01.811Z,80.10
2022-11-09T12:05:48.948Z,80.10
2022-11-09T12:08:00.185Z,79.10
2022-11-09T12:10:28.696Z,80.00
2022-11-09T12:12:42.645Z,79.60
2022-11-09T12:15:01.339Z,79.40
2022-11-09T12:17:14.730Z,79.40
2022-11-09T12:19:36.124Z,79.40
2022-11-09T12:21:45.325Z,79.10
2022-11-09T12:24:05.323Z,78.90
2022-11-09T12:26:24.039Z,78.60
2022-11-09T12:28:45.896Z,79.30
2022-11-09T12:30:59.089Z,79.10
2022-11-09T12:33:08.886Z,78.90
2022-11-09T12:35:32.992Z,78.70
2022-11-09T12:37:41.612Z,78.80
2022-11-09T12:39:48.544Z,79.00
2022-11-09T12:41:55.060Z,79.20
2022-11-09T12:44:03.716Z,78.80
2022-11-09T12:46:08.125Z,78.60
2022-11-09T12:48:21.615Z,78.90
2022-11-09T12:50:27.650Z,78.80
2022-11-09T12:52:32.113Z,78.60
2022-11-09T12:54:36.461Z,78.80
2022-11-09T12:56:48.464Z,79.10
2022-11-09T12:58:53.067Z,78.40
2022-11-09T13:00:57.879Z,78.60
2022-11-09T13:03:03.811Z,78.70
2022-11-09T13:05:09.631Z,79.10
2022-11-09T13:07:40.900Z,78.80
2022-11-09T13:09:45.032Z,79.00
2022-11-09T13:11:50.650Z,78.90
2022-11-09T13:14:30.182Z,78.40
2022-11-09T13:16:36.420Z,79.00
2022-11-09T13:18:52.338Z,79.00
2022-11-09T13:20:57.203Z,78.30
2022-11-09T13:23:02.374Z,78.20
2022-11-09T13:25:32.960Z,78.30
2022-11-09T13:27:42.121Z,78.60
2022-11-09T13:29:56.037Z,78.00
2022-11-09T13:32:06.058Z,77.90
2022-11-09T13:34:42.660Z,77.80
2022-11-09T13:37:18.933Z,78.00
2022-11-09T13:39:32.991Z,77.40
2022-11-09T13:41:46.495Z,76.80
2022-11-09T13:44:06.471Z,77.20
2022-11-09T13:46:26.818Z,77.30
2022-11-09T13:48:40.534Z,77.10
2022-11-09T13:50:56.374Z,77.20
2022-11-09T13:53:00.193Z,77.50
2022-11-09T13:55:04.912Z,77.60
2022-11-09T13:57:08.677Z,77.20
2022-11-09T13:59:18.013Z,77.50
2022-11-09T14:01:38.368Z,77.70
2022-11-09T14:03:41.784Z,77.60
2022-11-09T14:05:45.791Z,77.30
2022-11-09T14:07:48.802Z,76.90
2022-11-09T14:10:01.357Z,77.30
2022-11-09T14:12:27.657Z,77.00
2022-11-09T14:14:54.709Z,77.20
2022-11-09T14:17:06.153Z,77.30
2022-11-09T14:19:21.018Z,77.50
2022-11-09T14:21:36.144Z,77.30
2022-11-09T14:23:39.186Z,77.50
2022-11-09T14:25:42.153Z,77.30
2022-11-09T14:27:51.292Z,77.20
2022-11-09T14:29:56.513Z,77.40
2022-11-09T14:32:02.159Z,77.10
2022-11-09T14:34:07.710Z,77.10
2022-11-09T14:36:14.025Z,77.10
2022-11-09T14:38:20.247Z,77.20
2022-11-09T14:40:26.579Z,77.50
2022-11-09T14:42:30.060Z,77.30
2022-11-09T14:44:40.752Z,76.90
2022-11-09T14:46:44.749Z,77.40
2022-11-09T14:48:53.792Z,77.10
2022-11-09T14:51:02.070Z,77.20
2022-11-09T14:53:06.359Z,77.00
2022-11-09T14:55:19.820Z,77.20
2022-11-09T14:57:24.330Z,77.60
2022-11-09T14:59:32.084Z,77.60
2022-11-09T15:01:35.042Z,77.60
2022-11-09T15:03:38.050Z,77.60
2022-11-09T15:05:42.384Z,77.60
2022-11-09T15:07:47.978Z,77.80
2022-11-09T15:09:54.331Z,77.60
2022-11-09T15:11:57.356Z,77.70
2022-11-09T15:14:01.260Z,77.90
2022-11-09T15:16:05.725Z,77.60
2022-11-09T15:18:19.382Z,77.90
2022-11-09T15:20:28.924Z,77.80
2022-11-09T15:22:50.354Z,77.80
2022-11-09T15:24:53.240Z,77.70
2022-11-09T15:26:57.634Z,77.70
2022-11-09T15:29:00.636Z,78.00
2022-11-09T15:31:15.553Z,77.90
2022-11-09T15:33:25.404Z,77.80
2022-11-09T15:35:28.793Z,77.80
2022-11-09T15:37:47.723Z,78.10
2022-11-09T15:39:52.104Z,78.20
2022-11-09T15:41:55.023Z,78.20
2022-11-09T15:43:58.231Z,78.00
2022-11-09T15:46:02.257Z,78.00
2022-11-09T15:48:05.191Z,78.00
2022-11-09T15:50:16.576Z,77.90
2022-11-09T15:52:19.447Z,78.00
2022-11-09T15:54:23.080Z,77.60
2022-11-09T15:56:27.940Z,77.80
2022-11-09T15:58:31.013Z,77.90
2022-11-09T16:00:34.045Z,77.80
2022-11-09T16:02:36.994Z,77.90
2022-11-09T16:04:41.448Z,77.70
2022-11-09T16:06:46.724Z,78.00
2022-11-09T16:08:50.550Z,77.90
2022-11-09T16:10:53.727Z,77.80
2022-11-09T16:12:58.551Z,78.20
2022-11-09T16:15:01.491Z,78.10
2022-11-09T16:17:04.431Z,78.10
2022-11-09T16:19:07.353Z,77.60
2022-11-09T16:21:11.837Z,77.80
2022-11-09T16:23:14.785Z,77.90
2022-11-09T16:25:17.745Z,77.90
2022-11-09T16:27:49.739Z,77.80
2022-11-09T16:29:46.697Z,77.60
2022-11-09T16:31:52.759Z,77.50
2022-11-09T16:33:55.835Z,77.50
2022-11-09T16:36:03.137Z,77.30
2022-11-09T16:38:06.107Z,77.60
2022-11-09T16:40:12.326Z,77.30
2022-11-09T16:42:17.189Z,77.70
2022-11-09T16:44:23.490Z,78.00
2022-11-09T16:46:30.245Z,77.80
2022-11-09T16:48:34.479Z,77.50
2022-11-09T16:50:37.719Z,77.90
2022-11-09T16:52:40.788Z,77.90
2022-11-09T16:54:43.788Z,77.90
2022-11-09T16:56:48.035Z,77.70
2022-11-09T16:58:51.114Z,77.80
2022-11-09T17:01:11.290Z,77.70
2022-11-09T17:03:16.749Z,77.70
2022-11-09T17:05:19.590Z,77.80
2022-11-09T17:07:22.772Z,77.70
2022-11-09T17:09:25.647Z,77.80
2022-11-09T17:11:28.572Z,77.80
2022-11-09T17:13:31.425Z,77.60
2022-11-09T17:15:34.286Z,77.50
2022-11-09T17:17:37.172Z,77.50
2022-11-09T17:19:41.535Z,77.70
2022-11-09T17:21:44.475Z,77.60
2022-11-09T17:23:48.202Z,77.70
2022-11-09T17:25:58.007Z,77.50
2022-11-09T17:28:00.892Z,77.60
2022-11-09T17:30:04.103Z,77.40
2022-11-09T17:32:08.157Z,77.50
2022-11-09T17:34:12.254Z,77.50
2022-11-09T17:36:35.218Z,77.60
2022-11-09T17:38:45.054Z,77.60
2022-11-09T17:40:47.943Z,77.40
2022-11-09T17:42:51.152Z,77.30
2022-11-09T17:44:54.111Z,77.40
2022-11-09T17:46:57.296Z,77.20
2022-11-09T17:49:00.192Z,77.30
2022-11-09T17:51:03.599Z,77.50
2022-11-09T17:53:07.834Z,77.40
2022-11-09T17:55:10.759Z,77.30
2022-11-09T17:57:13.864Z,77.40
2022-11-09T17:59:16.793Z,77.40
2022-11-09T18:01:21.300Z,77.40
2022-11-09T18:03:25.583Z,77.40
2022-11-09T18:05:29.128Z,77.30
2022-11-09T18:07:32.247Z,77.20
2022-11-09T18:09:41.713Z,77.30
2022-11-09T18:11:45.394Z,77.40
2022-11-09T18:13:48.969Z,77.50
2022-11-09T18:15:51.897Z,77.70
2022-11-09T18:17:55.514Z,77.60
2022-11-09T18:19:58.433Z,77.40
2022-11-09T18:22:03.413Z,77.60
2022-11-09T18:24:08.086Z,77.60
2022-11-09T18:26:12.942Z,77.60
2022-11-09T18:28:15.850Z,77.70
2022-11-09T18:30:18.971Z,77.50
2022-11-09T18:32:21.827Z,77.60
2022-11-09T18:34:24.729Z,77.60
2022-11-09T18:36:27.934Z,77.80
2022-11-09T18:38:31.828Z,78.00
2022-11-09T18:40:34.973Z,78.00
2022-11-09T18:42:40.367Z,78.00
2022-11-09T18:44:43.278Z,78.00
2022-11-09T18:46:46.253Z,78.00
2022-11-09T18:48:52.518Z,78.10
2022-11-09T18:50:56.532Z,78.40
2022-11-09T18:52:59.446Z,78.40
2022-11-09T18:55:02.492Z,78.60
2022-11-09T18:57:05.435Z,78.60
2022-11-09T18:59:12.468Z,78.70
2022-11-09T19:01:15.981Z,78.60
2022-11-09T19:03:19.030Z,78.70
2022-11-09T19:05:21.955Z,79.00
2022-11-09T19:07:24.901Z,79.10
2022-11-09T19:09:29.588Z,79.00
2022-11-09T19:11:33.301Z,79.10
2022-11-09T19:13:36.140Z,79.10
2022-11-09T19:15:42.539Z,79.00
2022-11-09T19:17:45.452Z,79.20
2022-11-09T19:19:48.434Z,78.90
2022-11-09T19:21:53.700Z,78.90
2022-11-09T19:23:57.064Z,79.00
2022-11-09T19:26:02.267Z,79.00
2022-11-09T19:28:05.194Z,79.10
2022-11-09T19:30:10.122Z,79.30
2022-11-09T19:32:14.461Z,79.20
2022-11-09T19:34:19.441Z,79.00
2022-11-09T19:36:32.513Z,79.10
2022-11-09T19:38:35.499Z,79.10
2022-11-09T19:40:40.008Z,79.20
2022-11-09T19:42:43.083Z,79.00
2022-11-09T19:44:45.964Z,79.00
2022-11-09T19:46:48.824Z,79.20
2022-11-09T19:48:53.183Z,79.30
2022-11-09T19:50:56.102Z,79.30
2022-11-09T19:52:58.930Z,79.40
2022-11-09T19:55:01.935Z,79.50
2022-11-09T19:57:04.833Z,79.50
2022-11-09T19:59:08.042Z,79.70
2022-11-09T20:01:12.783Z,79.70
2022-11-09T20:03:15.706Z,79.70
2022-11-09T20:05:20.111Z,79.70
2022-11-09T20:07:23.263Z,79.50
2022-11-09T20:09:26.198Z,80.20
2022-11-09T20:11:47.358Z,79.60
2022-11-09T20:13:50.212Z,79.60
2022-11-09T20:15:53.072Z,79.80
2022-11-09T20:17:55.913Z,79.90
2022-11-09T20:19:58.721Z,79.80
2022-11-09T20:22:02.929Z,79.70
2022-11-09T20:24:06.427Z,79.90
2022-11-09T20:26:11.607Z,80.60
2022-11-09T20:28:14.556Z,79.70
2022-11-09T20:30:17.806Z,79.70
2022-11-09T20:32:21.815Z,80.00
2022-11-09T20:34:25.513Z,80.20
2022-11-09T20:36:28.354Z,80.30
2022-11-09T20:38:33.113Z,80.10
2022-11-09T20:40:36.034Z,80.10
2022-11-09T20:42:38.846Z,80.00
2022-11-09T20:44:41.738Z,80.20
2022-11-09T20:46:44.617Z,80.30
2022-11-09T20:48:54.028Z,80.50
2022-11-09T20:51:03.184Z,80.40
2022-11-09T20:53:06.082Z,80.30
2022-11-09T20:55:11.149Z,80.50
2022-11-09T20:57:14.105Z,80.30
2022-11-09T20:59:16.966Z,80.30
2022-11-09T21:01:21.600Z,80.00
2022-11-09T21:03:25.540Z,80.30
2022-11-09T21:05:28.470Z,80.50
2022-11-09T21:07:31.306Z,80.50
2022-11-09T21:09:34.315Z,80.50
2022-11-09T21:11:59.249Z,80.30
2022-11-09T21:14:02.920Z,80.20
2022-11-09T21:16:07.073Z,79.70
2022-11-09T21:18:10.336Z,79.70
2022-11-09T21:20:13.560Z,79.50
2022-11-09T21:22:16.416Z,79.40
2022-11-09T21:24:36.747Z,79.20
2022-11-09T21:26:58.516Z,79.00
2022-11-09T21:29:15.296Z,79.10
2022-11-09T21:31:18.135Z,78.60
2022-11-09T21:33:21.036Z,79.20
2022-11-09T21:35:23.947Z,78.90
2022-11-09T21:37:26.914Z,79.10
2022-11-09T21:39:29.761Z,79.00
2022-11-09T21:41:38.547Z,78.70
2022-11-09T21:43:42.790Z,78.80
2022-11-09T21:45:50.430Z,78.40
2022-11-09T21:47:56.019Z,78.40
2022-11-09T21:49:58.901Z,78.60
2022-11-09T21:52:02.065Z,78.00
2022-11-09T21:54:06.007Z,78.00
2022-11-09T21:56:09.674Z,78.10
2022-11-09T21:58:12.576Z,77.90
2022-11-09T22:00:18.257Z,78.50
2022-11-09T22:02:21.110Z,78.60
2022-11-09T22:04:23.919Z,78.40
2022-11-09T22:06:27.272Z,78.30
2022-11-09T22:08:30.328Z,78.10
2022-11-09T22:10:33.269Z,78.30
2022-11-09T22:12:55.523Z,78.40
2022-11-09T22:15:15.910Z,78.70
2022-11-09T22:17:20.074Z,78.20
2022-11-09T22:19:40.430Z,78.30
2022-11-09T22:21:43.298Z,78.90
2022-11-09T22:23:46.299Z,79.40
2022-11-09T22:25:49.109Z,79.20
2022-11-09T22:27:51.989Z,79.10
2022-11-09T22:29:54.793Z,79.10
2022-11-09T22:31:57.729Z,78.80
2022-11-09T22:34:01.917Z,78.70
2022-11-09T22:36:07.223Z,79.00
2022-11-09T22:38:10.050Z,78.80
2022-11-09T22:40:13.297Z,78.80
2022-11-09T22:42:16.140Z,78.60
2022-11-09T22:44:19.051Z,78.70
2022-11-09T22:46:21.912Z,78.80
2022-11-09T22:48:24.732Z,79.10
2022-11-09T22:50:28.933Z,79.10
2022-11-09T22:52:31.809Z,78.90
2022-11-09T22:54:34.645Z,78.80
2022-11-09T22:56:37.611Z,79.10
2022-11-09T22:58:40.472Z,79.20
2022-11-09T23:00:43.411Z,78.90
2022-11-09T23:02:46.263Z,78.90
2022-11-09T23:04:49.083Z,78.60
2022-11-09T23:06:53.334Z,78.80
2022-11-09T23:08:56.188Z,78.50
2022-11-09T23:10:59.316Z,78.60
2022-11-09T23:13:02.591Z,78.50
2022-11-09T23:15:06.721Z,78.50
2022-11-09T23:17:29.590Z,78.50
2022-11-09T23:19:31.457Z,78.20
2022-11-09T23:21:36.046Z,78.00
2022-11-09T23:23:40.662Z,78.30
2022-11-09T23:25:54.585Z,78.00
2022-11-09T23:27:57.734Z,78.30
2022-11-09T23:30:00.632Z,79.00
2022-11-09T23:32:03.431Z,78.40
2022-11-09T23:34:10.031Z,78.20
2022-11-09T23:36:13.142Z,78.00
2022-11-09T23:38:15.962Z,78.10
2022-11-09T23:40:20.289Z,77.90
2022-11-09T23:42:23.126Z,78.20
2022-11-09T23:44:26.017Z,78.10
2022-11-09T23:46:28.853Z,78.20
2022-11-09T23:48:31.956Z,78.40
2022-11-09T23:50:34.862Z,78.50
2022-11-09T23:52:37.720Z,78.80
2022-11-09T23:54:40.590Z,78.10
2022-11-09T23:56:44.731Z,78.40
2022-11-09T23:58:51.731Z,78.50
